createdAt,value
2022-09-12T00:07:07.040Z,80.3
2022-09-12T00:09:33.631Z,80.3
2022-09-12T00:12:00.256Z,80.3
2022-09-12T00:14:26.877Z,80.3
2022-09-12T00:16:53.499Z,80.3
2022-09-12T00:21:46.798Z,80.3
2022-09-12T00:24:13.364Z,80.4
2022-09-12T00:26:40.012Z,80.4
2022-09-12T00:29:06.613Z,80.4
2022-09-12T00:31:31.735Z,80.4
2022-09-12T00:33:58.376Z,80.4
2022-09-12T00:36:24.998Z,80.4
2022-09-12T00:38:51.602Z,80.4
2022-09-12T00:41:18.248Z,80.4
2022-09-12T00:43:44.855Z,80.4
2022-09-12T00:46:11.475Z,80.5
2022-09-12T00:53:31.343Z,80.4
2022-09-12T00:55:56.475Z,80.4
2022-09-12T00:58:23.095Z,80.4
2022-09-12T01:00:49.725Z,80.5
2022-09-12T01:03:16.352Z,80.5
2022-09-12T01:05:42.974Z,80.5
2022-09-12T01:08:09.639Z,80.5
2022-09-12T01:10:36.287Z,80.6
2022-09-12T01:13:02.835Z,80.7
2022-09-12T01:20:22.707Z,80.7
2022-09-12T01:22:49.343Z,80.8
2022-09-12T01:25:15.958Z,80.8
2022-09-12T01:27:42.596Z,80.7
2022-09-12T01:30:07.708Z,80.7
2022-09-12T01:35:00.970Z,80.7
2022-09-12T01:37:27.569Z,80.7
2022-09-12T01:39:54.206Z,80.7
2022-09-12T01:42:20.836Z,80.7
2022-09-12T01:44:47.447Z,80.7
2022-09-12T01:47:14.082Z,80.6
2022-09-12T01:49:40.710Z,80.5
2022-09-12T01:52:07.308Z,80.4
2022-09-12T01:54:33.930Z,80.3
2022-09-12T01:57:00.569Z,80.3
2022-09-12T01:59:27.192Z,80.2
2022-09-12T02:04:18.931Z,80
2022-09-12T02:06:45.546Z,80
2022-09-12T02:09:12.169Z,80
2022-09-12T02:11:38.792Z,80
2022-09-12T02:14:05.418Z,80
2022-09-12T02:18:58.677Z,79.9
2022-09-12T02:21:25.307Z,79.8
2022-09-12T02:23:51.916Z,79.8
2022-09-12T02:26:18.529Z,79.8
2022-09-12T02:28:45.157Z,79.7
2022-09-12T02:33:38.399Z,79.7
2022-09-12T02:36:05.054Z,79.6
2022-09-12T02:38:30.162Z,79.6
2022-09-12T02:40:56.782Z,79.6
2022-09-12T02:43:23.398Z,79.6
2022-09-12T02:45:50.020Z,79.6
2022-09-12T02:48:16.637Z,79.6
2022-09-12T02:50:43.268Z,79.6
2022-09-12T02:53:09.904Z,79.6
2022-09-12T02:55:36.512Z,79.6
2022-09-12T02:58:03.133Z,79.6
2022-09-12T03:00:29.776Z,79.6
2022-09-12T03:02:56.382Z,79.6
2022-09-12T03:05:23.013Z,79.6
2022-09-12T03:10:16.259Z,79.6
2022-09-12T03:12:42.882Z,79.6
2022-09-12T03:15:08.012Z,79.6
2022-09-12T03:17:34.609Z,79.6
2022-09-12T03:20:01.238Z,79.6
2022-09-12T03:22:27.858Z,79.6
2022-09-12T03:24:54.494Z,79.6
2022-09-12T03:27:21.106Z,79.5
2022-09-12T03:32:14.358Z,79.6
2022-09-12T03:34:40.980Z,79.6
2022-09-12T03:37:07.628Z,79.6
2022-09-12T03:39:34.228Z,79.6
2022-09-12T03:42:00.840Z,79.6
2022-09-12T03:46:54.084Z,79.6
2022-09-12T03:49:20.710Z,79.6
2022-09-12T03:51:47.332Z,79.7
2022-09-12T03:54:13.955Z,79.6
2022-09-12T03:56:40.617Z,79.6
2022-09-12T04:01:33.837Z,79.6
2022-09-12T04:03:58.960Z,79.6
2022-09-12T04:06:25.567Z,79.6
2022-09-12T04:08:52.206Z,79.7
2022-09-12T04:11:18.844Z,79.7
2022-09-12T04:16:12.060Z,79.6
2022-09-12T04:18:38.689Z,79.6
2022-09-12T04:21:05.324Z,79.6
2022-09-12T04:23:31.937Z,79.7
2022-09-12T04:25:58.578Z,79.7
2022-09-12T04:28:25.187Z,79.7
2022-09-12T04:30:51.816Z,79.7
2022-09-12T04:33:18.499Z,79.6
2022-09-12T04:35:45.046Z,79.6
2022-09-12T04:38:11.700Z,79.7
2022-09-12T04:40:36.804Z,79.7
2022-09-12T04:45:30.046Z,79.7
2022-09-12T04:47:56.679Z,79.7
2022-09-12T04:50:23.302Z,79.7
2022-09-12T04:52:49.914Z,79.7
2022-09-12T04:55:16.546Z,79.8
2022-09-12T04:57:43.175Z,79.8
2022-09-12T05:00:09.786Z,79.7
2022-09-12T05:02:36.405Z,79.8
2022-09-12T05:05:03.039Z,79.9
2022-09-12T05:07:29.659Z,79.9
2022-09-12T05:09:54.791Z,79.9
2022-09-12T05:12:21.445Z,79.8
2022-09-12T05:14:46.541Z,79.8
2022-09-12T05:17:13.186Z,79.7
2022-09-12T05:19:39.781Z,79.7
2022-09-12T05:22:06.398Z,79.7
2022-09-12T05:24:33.145Z,79.7
2022-09-12T05:26:59.704Z,79.6
2022-09-12T05:29:26.288Z,79.6
2022-09-12T05:31:52.889Z,79.6
2022-09-12T05:34:19.542Z,79.5
2022-09-12T05:36:44.642Z,79.5
2022-09-12T05:39:11.301Z,79.6
2022-09-12T05:41:37.903Z,79.5
2022-09-12T05:44:04.571Z,79.5
2022-09-12T05:46:31.144Z,79.5
2022-09-12T05:48:57.771Z,79.5
2022-09-12T05:51:24.397Z,79.4
2022-09-12T05:53:51.008Z,79.4
2022-09-12T05:56:16.142Z,79.4
2022-09-12T05:58:42.802Z,79.3
2022-09-12T06:01:09.404Z,79.2
2022-09-12T06:03:36.011Z,79.3
2022-09-12T06:06:02.624Z,79.2
2022-09-12T06:08:29.272Z,79.2
2022-09-12T06:10:55.891Z,79.2
2022-09-12T06:13:22.498Z,79.2
2022-09-12T06:15:49.123Z,79.1
2022-09-12T06:18:15.739Z,79.3
2022-09-12T06:20:42.363Z,79.2
2022-09-12T06:23:08.991Z,79.1
2022-09-12T06:25:35.623Z,79
2022-09-12T06:28:00.743Z,78.9
2022-09-12T06:30:27.369Z,78.8
2022-09-12T06:32:54.049Z,78.7
2022-09-12T06:35:20.605Z,78.4
2022-09-12T06:37:47.292Z,78.1
2022-09-12T06:40:13.849Z,77.4
2022-09-12T06:42:40.466Z,76.5
2022-09-12T06:45:07.106Z,76.2
2022-09-12T06:47:33.727Z,77.6
2022-09-12T06:50:00.346Z,82.1
2022-09-12T06:52:26.975Z,87.7
2022-09-12T06:54:53.598Z,89.6
2022-09-12T06:57:20.242Z,90.7
2022-09-12T06:59:45.339Z,91
2022-09-12T07:02:12.033Z,90.2
2022-09-12T07:04:38.583Z,89.7
2022-09-12T07:07:05.212Z,90.3
2022-09-12T07:09:31.838Z,90.2
2022-09-12T07:11:58.480Z,90.9
2022-09-12T07:14:25.074Z,86.4
2022-09-12T07:16:51.689Z,82
2022-09-12T07:19:18.340Z,77.9
2022-09-12T07:21:44.944Z,69.2
2022-09-12T07:24:11.593Z,66.1
2022-09-12T07:26:38.188Z,65.5
2022-09-12T07:29:04.818Z,62.9
2022-09-12T07:31:29.951Z,60.6
2022-09-12T07:33:56.562Z,60.7
2022-09-12T07:36:23.187Z,59.5
2022-09-12T07:38:49.833Z,59.4
2022-09-12T07:41:16.434Z,58
2022-09-12T07:43:43.060Z,57.1
2022-09-12T07:46:09.667Z,57.3
2022-09-12T07:48:36.299Z,56.5
2022-09-12T07:51:02.923Z,56.1
2022-09-12T07:53:29.571Z,56.5
2022-09-12T07:55:56.182Z,54
2022-09-12T07:58:22.789Z,53.9
2022-09-12T08:00:49.410Z,53.3
2022-09-12T08:03:16.041Z,53.1
2022-09-12T08:05:41.166Z,52.4
2022-09-12T08:08:07.799Z,50.7
2022-09-12T08:10:34.409Z,49.5
2022-09-12T08:13:01.039Z,48.6
2022-09-12T08:15:27.654Z,48.6
2022-09-12T08:17:54.274Z,49.2
2022-09-12T08:20:20.906Z,50.3
2022-09-12T08:22:47.620Z,49.5
2022-09-12T08:25:14.157Z,50.6
2022-09-12T08:27:40.769Z,49
2022-09-12T08:30:07.398Z,48.6
2022-09-12T08:32:34.022Z,47.6
2022-09-12T08:35:00.677Z,46.4
2022-09-12T08:37:25.764Z,44.8
2022-09-12T08:39:52.377Z,44.8
2022-09-12T08:42:19.009Z,45.7
2022-09-12T08:44:45.680Z,43.9
2022-09-12T08:47:12.243Z,44.3
2022-09-12T08:49:38.906Z,41
2022-09-12T08:52:05.502Z,41
2022-09-12T08:54:32.140Z,39.1
2022-09-12T08:56:58.792Z,38.5
2022-09-12T08:59:25.365Z,40.7
2022-09-12T09:01:51.995Z,40.1
2022-09-12T09:04:18.610Z,38.5
2022-09-12T09:06:43.766Z,38.2
2022-09-12T09:09:10.409Z,37.9
2022-09-12T09:11:36.995Z,38.2
2022-09-12T09:14:03.616Z,38.4
2022-09-12T09:16:30.228Z,37.3
2022-09-12T09:18:56.893Z,37.2
2022-09-12T09:21:23.483Z,37.3
2022-09-12T09:23:50.141Z,36.4
2022-09-12T09:26:16.735Z,37.5
2022-09-12T09:28:43.353Z,38
2022-09-12T09:31:09.968Z,39.3
2022-09-12T09:33:36.648Z,37.9
2022-09-12T09:38:29.859Z,36.7
2022-09-12T09:40:54.997Z,38.8
2022-09-12T09:43:21.577Z,39.6
2022-09-12T09:45:48.321Z,38
2022-09-12T09:48:14.835Z,37.1
2022-09-12T09:50:41.534Z,38.4
2022-09-12T09:53:08.086Z,39.8
2022-09-12T09:55:34.713Z,39
2022-09-12T09:58:01.353Z,37.4
2022-09-12T10:00:27.946Z,35.8
2022-09-12T10:02:54.575Z,34.7
2022-09-12T10:05:21.328Z,36
2022-09-12T10:07:47.821Z,36.8
2022-09-12T10:10:14.442Z,39.2
2022-09-12T10:12:41.057Z,40.5
2022-09-12T10:15:07.675Z,41.8
2022-09-12T10:17:32.801Z,44.7
2022-09-12T10:19:59.433Z,45.8
2022-09-12T10:22:26.194Z,44.6
2022-09-12T10:24:52.677Z,48.2
2022-09-12T10:27:19.302Z,45.6
2022-09-12T10:29:45.930Z,46.1
2022-09-12T10:32:12.588Z,45.5
2022-09-12T10:34:39.175Z,46.8
2022-09-12T10:37:05.793Z,46.6
2022-09-12T10:39:32.412Z,46.6
2022-09-12T10:41:59.037Z,45.1
2022-09-12T10:44:25.649Z,46.9
2022-09-12T10:46:52.279Z,44.7
2022-09-12T10:51:44.030Z,47.8
2022-09-12T10:59:03.914Z,48.5
2022-09-12T11:01:30.531Z,46.6
2022-09-12T11:03:55.681Z,47.8
2022-09-12T11:06:20.784Z,46.9
2022-09-12T11:08:47.455Z,46.7
2022-09-12T11:11:14.070Z,47.3
2022-09-12T11:13:40.761Z,48.6
2022-09-12T11:16:07.273Z,46.3
2022-09-12T11:18:33.891Z,45.6
2022-09-12T11:21:00.535Z,46.4
2022-09-12T11:23:27.153Z,46.8
2022-09-12T11:25:53.770Z,47.1
2022-09-12T11:28:20.452Z,45.6
2022-09-12T11:30:45.516Z,46.3
2022-09-12T11:38:03.898Z,43.7
2022-09-12T11:40:30.525Z,43.2
2022-09-12T11:42:57.130Z,43.5
2022-09-12T11:45:23.757Z,40.7
2022-09-12T11:47:50.379Z,43.6
2022-09-12T11:50:17.012Z,41.5
2022-09-12T11:52:43.625Z,42.8
2022-09-12T11:55:10.253Z,41.4
2022-09-12T11:57:36.889Z,43.2
2022-09-12T12:00:03.498Z,44.4
2022-09-12T12:04:56.752Z,42.2
2022-09-12T12:07:21.925Z,44.9
2022-09-12T12:09:48.679Z,44.7
2022-09-12T12:12:15.134Z,46.3
2022-09-12T12:14:41.777Z,43.4
2022-09-12T12:17:08.377Z,45
2022-09-12T12:19:34.991Z,43.9
2022-09-12T12:22:01.624Z,45.4
2022-09-12T12:24:28.239Z,46.8
2022-09-12T12:26:54.885Z,47.7
2022-09-12T12:29:21.497Z,47.2
2022-09-12T12:34:14.751Z,46.9
2022-09-12T12:36:41.378Z,46.9
2022-09-12T12:39:06.493Z,44.1
2022-09-12T12:41:33.111Z,43.8
2022-09-12T12:43:59.745Z,43.1
2022-09-12T12:46:26.364Z,44.7
2022-09-12T12:51:19.612Z,44.7
2022-09-12T12:53:44.754Z,45.9
2022-09-12T12:56:09.873Z,44.3
2022-09-12T12:58:36.510Z,45.4
2022-09-12T13:03:29.750Z,43.6
2022-09-12T13:05:56.379Z,44.4
2022-09-12T13:08:22.992Z,43.9
2022-09-12T13:10:49.610Z,44.4
2022-09-12T13:15:42.873Z,44.3
2022-09-12T13:18:09.522Z,47.1
2022-09-12T13:20:36.151Z,46.8
2022-09-12T13:23:02.725Z,43.8
2022-09-12T13:25:27.861Z,47
2022-09-12T13:27:52.987Z,46.5
2022-09-12T13:30:19.625Z,44.8
2022-09-12T13:32:46.268Z,44.6
2022-09-12T13:37:39.473Z,44
2022-09-12T13:40:06.103Z,43.7
2022-09-12T13:42:32.785Z,46
2022-09-12T13:44:59.367Z,45.3
2022-09-12T13:47:25.986Z,44.9
2022-09-12T13:49:52.602Z,46
2022-09-12T13:52:19.226Z,43.3
2022-09-12T13:54:45.842Z,44.6
2022-09-12T13:57:12.468Z,44.7
2022-09-12T13:59:39.104Z,44.2
2022-09-12T14:04:30.850Z,43.6
2022-09-12T14:06:57.482Z,44.6
2022-09-12T14:09:24.103Z,44
2022-09-12T14:11:50.747Z,45.3
2022-09-12T14:14:17.349Z,43.9
2022-09-12T14:16:44.176Z,45.1
2022-09-12T14:19:10.642Z,44.6
2022-09-12T14:21:37.226Z,43.2
2022-09-12T14:24:03.840Z,46.5
2022-09-12T14:31:23.715Z,44.7
2022-09-12T14:33:50.398Z,45
2022-09-12T14:36:15.459Z,46
2022-09-12T14:38:42.082Z,45.9
2022-09-12T14:41:08.710Z,45.7
2022-09-12T14:43:35.327Z,44.2
2022-09-12T14:46:02.002Z,45.2
2022-09-12T14:48:28.585Z,44
2022-09-12T14:50:55.207Z,43.8
2022-09-12T14:53:21.827Z,44
2022-09-12T14:55:48.459Z,43
2022-09-12T14:58:15.166Z,43.9
2022-09-12T15:00:41.701Z,44.8
2022-09-12T15:03:08.433Z,45.3
2022-09-12T15:05:34.953Z,44.9
2022-09-12T15:08:01.609Z,44.6
2022-09-12T15:10:28.189Z,44.8
2022-09-12T15:15:19.950Z,47.9
2022-09-12T15:17:46.635Z,46.5
2022-09-12T15:20:13.201Z,46.9
2022-09-12T15:22:39.814Z,46.4
2022-09-12T15:25:04.967Z,46.1
2022-09-12T15:27:30.081Z,44.9
2022-09-12T15:29:56.713Z,46.3
2022-09-12T15:32:23.353Z,46.4
2022-09-12T15:34:49.952Z,45.3
2022-09-12T15:37:16.573Z,45.3
2022-09-12T15:39:43.200Z,47.3
2022-09-12T15:44:36.451Z,46.9
2022-09-12T15:47:03.060Z,47.3
2022-09-12T15:49:29.698Z,47.1
2022-09-12T15:51:56.314Z,45.8
2022-09-12T15:54:22.928Z,45.4
2022-09-12T15:56:49.604Z,45.5
2022-09-12T15:59:14.693Z,47.4
2022-09-12T16:04:07.926Z,47.3
2022-09-12T16:06:33.070Z,48
2022-09-12T16:08:58.188Z,47.7
2022-09-12T16:11:24.816Z,48.5
2022-09-12T16:13:51.431Z,48.9
2022-09-12T16:16:18.074Z,48.1
2022-09-12T16:18:44.678Z,48.4
2022-09-12T16:21:11.296Z,48.8
2022-09-12T16:23:37.924Z,48.9
2022-09-12T16:28:31.207Z,48.6
2022-09-12T16:33:24.428Z,49.4
2022-09-12T16:35:51.043Z,49.8
2022-09-12T16:38:17.668Z,49.7
2022-09-12T16:40:44.296Z,50.8
2022-09-12T16:48:02.668Z,52.1
2022-09-12T16:50:29.278Z,55
2022-09-12T16:52:55.945Z,55.8
2022-09-12T16:55:22.533Z,56.3
2022-09-12T16:57:49.154Z,57.2
2022-09-12T17:02:42.411Z,59
2022-09-12T17:05:09.026Z,61.4
2022-09-12T17:07:35.647Z,64
2022-09-12T17:10:02.279Z,65.8
2022-09-12T17:12:28.961Z,67.5
2022-09-12T17:17:22.145Z,71.8
2022-09-12T17:19:47.322Z,75.4
2022-09-12T17:22:13.970Z,76.5
2022-09-12T17:24:40.537Z,77.8
2022-09-12T17:27:07.229Z,78.9
2022-09-12T17:32:00.391Z,81.6
2022-09-12T17:34:27.021Z,82.3
2022-09-12T17:36:53.627Z,82.6
2022-09-12T17:39:20.257Z,82.9
2022-09-12T17:41:46.921Z,83.6
2022-09-12T17:46:40.131Z,84.6
2022-09-12T17:49:06.736Z,86
2022-09-12T17:51:33.370Z,86.2
2022-09-12T17:53:58.506Z,86.7
2022-09-12T17:56:25.118Z,87
2022-09-12T17:58:51.742Z,87.4
2022-09-12T18:01:18.358Z,88
2022-09-12T18:03:44.980Z,88
2022-09-12T18:06:11.724Z,88.3
2022-09-12T18:08:38.238Z,88.7
2022-09-12T18:11:04.898Z,88.8
2022-09-12T18:15:58.093Z,89
2022-09-12T18:18:24.717Z,89
2022-09-12T18:20:51.341Z,89
2022-09-12T18:23:17.979Z,88.9
2022-09-12T18:25:44.585Z,89
2022-09-12T18:30:37.847Z,88.8
2022-09-12T18:33:02.973Z,89.1
2022-09-12T18:35:29.583Z,88.9
2022-09-12T18:40:22.841Z,88.7
2022-09-12T18:42:49.517Z,88.5
2022-09-12T18:45:16.104Z,88.5
2022-09-12T18:47:42.747Z,88.8
2022-09-12T18:50:09.324Z,88.8
2022-09-12T18:52:35.950Z,88.7
2022-09-12T18:55:02.636Z,88.7
2022-09-12T18:57:29.221Z,88.6
2022-09-12T18:59:55.817Z,88.6
2022-09-12T19:02:22.460Z,88.6
2022-09-12T19:07:15.682Z,88.7
2022-09-12T19:09:40.839Z,88.5
2022-09-12T19:12:07.445Z,88.3
2022-09-12T19:14:34.064Z,88.4
2022-09-12T19:17:00.677Z,88.2
2022-09-12T19:19:27.307Z,88.3
2022-09-12T19:21:53.957Z,88.3
2022-09-12T19:24:20.543Z,88.2
2022-09-12T19:26:47.226Z,88
2022-09-12T19:29:13.853Z,87.9
2022-09-12T19:31:38.925Z,88
2022-09-12T19:34:05.571Z,88
2022-09-12T19:36:30.685Z,87.7
2022-09-12T19:38:57.296Z,87.9
2022-09-12T19:41:23.923Z,87.8
2022-09-12T19:43:50.543Z,87.7
2022-09-12T19:46:17.170Z,87.7
2022-09-12T19:48:43.789Z,88.2
2022-09-12T19:51:10.414Z,87.6
2022-09-12T19:53:37.028Z,88.4
2022-09-12T19:56:03.666Z,88.2
2022-09-12T19:58:30.285Z,87.6
2022-09-12T20:00:55.403Z,87.5
2022-09-12T20:03:22.032Z,86.8
2022-09-12T20:05:48.665Z,87
2022-09-12T20:08:15.273Z,86.8
2022-09-12T20:10:40.415Z,86.8
2022-09-12T20:13:07.044Z,86.9
2022-09-12T20:15:33.670Z,86.8
2022-09-12T20:18:00.328Z,86.5
2022-09-12T20:22:53.528Z,85.4
2022-09-12T20:25:20.147Z,85.2
2022-09-12T20:27:46.757Z,85.4
2022-09-12T20:30:13.389Z,85.3
2022-09-12T20:32:40.042Z,84.7
2022-09-12T20:35:06.677Z,84.2
2022-09-12T20:37:33.250Z,84.4
2022-09-12T20:39:59.890Z,84.4
2022-09-12T20:44:51.624Z,84
2022-09-12T20:47:18.248Z,84.1
2022-09-12T20:49:43.383Z,84.3
2022-09-12T20:52:08.501Z,84.1
2022-09-12T20:54:35.127Z,83.6
2022-09-12T20:57:01.759Z,83.5
2022-09-12T20:59:28.373Z,83.6
2022-09-12T21:01:54.991Z,83.4
2022-09-12T21:04:21.620Z,83.4
2022-09-12T21:06:48.298Z,83.2
2022-09-12T21:11:41.509Z,83.1
2022-09-12T21:14:08.141Z,83.2
2022-09-12T21:16:34.721Z,83.3
2022-09-12T21:19:01.388Z,83
2022-09-12T21:21:27.974Z,82.8
2022-09-12T21:23:53.128Z,82.5
2022-09-12T21:26:19.718Z,81.8
2022-09-12T21:28:46.348Z,82.5
2022-09-12T21:33:39.615Z,82.1
2022-09-12T21:36:04.733Z,82.3
2022-09-12T21:38:29.866Z,82.4
2022-09-12T21:40:56.489Z,82.5
2022-09-12T21:43:23.089Z,82.1
2022-09-12T21:45:49.729Z,82.2
2022-09-12T21:48:16.349Z,82.5
2022-09-12T21:50:43.046Z,82.7
2022-09-12T21:53:09.599Z,82.6
2022-09-12T21:55:36.219Z,83.6
2022-09-12T21:58:02.865Z,83
2022-09-12T22:00:29.458Z,82.8
2022-09-12T22:02:56.136Z,82.3
2022-09-12T22:05:21.207Z,81.2
2022-09-12T22:07:47.835Z,80.9
2022-09-12T22:10:12.971Z,81.2
2022-09-12T22:12:39.610Z,81.6
2022-09-12T22:15:06.207Z,81.6
2022-09-12T22:19:59.488Z,81.5
2022-09-12T22:22:26.100Z,80.9
2022-09-12T22:24:52.764Z,80.8
2022-09-12T22:27:19.321Z,80.8
2022-09-12T22:29:45.967Z,80.8
2022-09-12T22:32:12.567Z,81
2022-09-12T22:34:39.192Z,80.9
2022-09-12T22:37:05.813Z,80.8
2022-09-12T22:39:32.440Z,81.1
2022-09-12T22:41:57.581Z,81.1
2022-09-12T22:44:24.220Z,80.9
2022-09-12T22:49:17.441Z,80.6
2022-09-12T22:51:42.623Z,80.4
2022-09-12T22:54:07.706Z,80.4
2022-09-12T22:56:34.299Z,80.5
2022-09-12T22:59:00.931Z,80.8
2022-09-12T23:01:27.619Z,80.7
2022-09-12T23:03:54.216Z,80.6
2022-09-12T23:06:20.814Z,81.2
2022-09-12T23:08:47.423Z,81.1
2022-09-12T23:11:14.045Z,80.8
2022-09-12T23:13:40.681Z,80.6
2022-09-12T23:16:07.296Z,80.4
2022-09-12T23:18:32.413Z,80.1
2022-09-12T23:20:57.554Z,80.4
2022-09-12T23:23:24.186Z,80.4
2022-09-12T23:25:50.790Z,80.3
2022-09-12T23:28:17.407Z,80.2
2022-09-12T23:30:44.041Z,80
2022-09-12T23:33:10.661Z,79.8
2022-09-12T23:35:37.286Z,80
2022-09-12T23:38:03.916Z,80.1
2022-09-12T23:40:30.538Z,80
2022-09-12T23:42:57.157Z,80.1
2022-09-12T23:45:22.310Z,80.2
2022-09-12T23:47:47.416Z,80.2
2022-09-12T23:50:14.047Z,80.2
2022-09-12T23:52:40.652Z,80.1
2022-09-12T23:55:07.327Z,79.9
2022-09-12T23:57:33.901Z,79.8
